sensor_id;sensor_type;location;lat;lon;timestamp;P1;durP1;ratioP1;P2;durP2;ratioP2
52266;SDS011;38223;50.940;4.034;2023-02-28T00:00:08;5.47;;;4.95;;
52266;SDS011;38223;50.940;4.034;2023-02-28T00:02:38;5.12;;;4.72;;
52266;SDS011;38223;50.940;4.034;2023-02-28T00:05:08;9.83;;;5.73;;
52266;SDS011;38223;50.940;4.034;2023-02-28T00:10:07;5.55;;;5.03;;
52266;SDS011;38223;50.940;4.034;2023-02-28T00:12:42;9.23;;;5.45;;
52266;SDS011;38223;50.940;4.034;2023-02-28T00:15:12;8.48;;;5.20;;
52266;SDS011;38223;50.940;4.034;2023-02-28T00:17:45;5.80;;;5.10;;
52266;SDS011;38223;50.940;4.034;2023-02-28T00:20:14;6.20;;;5.15;;
52266;SDS011;38223;50.940;4.034;2023-02-28T00:22:42;6.70;;;5.30;;
52266;SDS011;38223;50.940;4.034;2023-02-28T00:25:13;7.12;;;5.65;;
52266;SDS011;38223;50.940;4.034;2023-02-28T00:27:47;6.87;;;5.15;;
52266;SDS011;38223;50.940;4.034;2023-02-28T00:30:20;6.47;;;5.28;;
52266;SDS011;38223;50.940;4.034;2023-02-28T00:32:52;6.47;;;5.55;;
52266;SDS011;38223;50.940;4.034;2023-02-28T00:35:20;8.48;;;5.40;;
52266;SDS011;38223;50.940;4.034;2023-02-28T00:37:47;8.60;;;5.30;;
52266;SDS011;38223;50.940;4.034;2023-02-28T00:40:15;9.68;;;5.12;;
52266;SDS011;38223;50.940;4.034;2023-02-28T00:42:43;6.80;;;5.22;;
52266;SDS011;38223;50.940;4.034;2023-02-28T00:45:11;7.50;;;5.15;;
52266;SDS011;38223;50.940;4.034;2023-02-28T00:47:41;7.60;;;5.50;;
52266;SDS011;38223;50.940;4.034;2023-02-28T00:50:12;7.25;;;5.20;;
52266;SDS011;38223;50.940;4.034;2023-02-28T00:52:40;5.60;;;4.97;;
52266;SDS011;38223;50.940;4.034;2023-02-28T00:55:12;8.05;;;5.47;;
52266;SDS011;38223;50.940;4.034;2023-02-28T00:57:40;5.33;;;4.78;;
52266;SDS011;38223;50.940;4.034;2023-02-28T01:00:12;8.80;;;5.08;;
52266;SDS011;38223;50.940;4.034;2023-02-28T01:02:40;7.47;;;5.60;;
52266;SDS011;38223;50.940;4.034;2023-02-28T01:05:08;6.78;;;5.10;;
52266;SDS011;38223;50.940;4.034;2023-02-28T01:07:35;5.70;;;5.03;;
52266;SDS011;38223;50.940;4.034;2023-02-28T01:10:04;5.55;;;5.00;;
52266;SDS011;38223;50.940;4.034;2023-02-28T01:12:36;6.50;;;5.37;;
52266;SDS011;38223;50.940;4.034;2023-02-28T01:15:05;6.75;;;5.20;;
52266;SDS011;38223;50.940;4.034;2023-02-28T01:17:37;7.55;;;5.20;;
52266;SDS011;38223;50.940;4.034;2023-02-28T01:20:06;7.90;;;5.72;;
52266;SDS011;38223;50.940;4.034;2023-02-28T01:22:38;6.58;;;5.25;;
52266;SDS011;38223;50.940;4.034;2023-02-28T01:25:07;7.58;;;4.65;;
52266;SDS011;38223;50.940;4.034;2023-02-28T01:27:36;8.13;;;5.45;;
52266;SDS011;38223;50.940;4.034;2023-02-28T01:30:05;9.23;;;5.37;;
52266;SDS011;38223;50.940;4.034;2023-02-28T01:32:39;8.05;;;5.25;;
52266;SDS011;38223;50.940;4.034;2023-02-28T01:35:08;6.80;;;5.30;;
52266;SDS011;38223;50.940;4.034;2023-02-28T01:37:37;6.87;;;4.85;;
52266;SDS011;38223;50.940;4.034;2023-02-28T01:40:05;6.70;;;5.45;;
52266;SDS011;38223;50.940;4.034;2023-02-28T01:42:33;8.68;;;5.25;;
52266;SDS011;38223;50.940;4.034;2023-02-28T01:45:03;7.25;;;5.30;;
52266;SDS011;38223;50.940;4.034;2023-02-28T01:47:35;5.72;;;5.12;;
52266;SDS011;38223;50.940;4.034;2023-02-28T01:50:07;8.45;;;5.03;;
52266;SDS011;38223;50.940;4.034;2023-02-28T01:52:39;6.55;;;5.08;;
52266;SDS011;38223;50.940;4.034;2023-02-28T01:55:08;7.97;;;5.78;;
52266;SDS011;38223;50.940;4.034;2023-02-28T01:57:45;7.67;;;5.42;;
52266;SDS011;38223;50.940;4.034;2023-02-28T02:00:32;6.30;;;4.97;;
52266;SDS011;38223;50.940;4.034;2023-02-28T02:03:09;7.00;;;5.28;;
52266;SDS011;38223;50.940;4.034;2023-02-28T02:05:37;8.63;;;5.55;;
52266;SDS011;38223;50.940;4.034;2023-02-28T02:08:09;6.05;;;5.45;;
52266;SDS011;38223;50.940;4.034;2023-02-28T02:10:51;6.05;;;5.45;;
52266;SDS011;38223;50.940;4.034;2023-02-28T02:19:08;7.00;;;5.08;;
52266;SDS011;38223;50.940;4.034;2023-02-28T02:24:55;8.68;;;6.12;;
52266;SDS011;38223;50.940;4.034;2023-02-28T02:27:33;8.20;;;5.50;;
52266;SDS011;38223;50.940;4.034;2023-02-28T02:33:03;6.08;;;5.45;;
52266;SDS011;38223;50.940;4.034;2023-02-28T02:35:52;5.85;;;5.22;;
52266;SDS011;38223;50.940;4.034;2023-02-28T02:41:33;5.97;;;5.05;;
52266;SDS011;38223;50.940;4.034;2023-02-28T02:44:15;6.67;;;5.58;;
52266;SDS011;38223;50.940;4.034;2023-02-28T02:46:46;6.78;;;5.78;;
52266;SDS011;38223;50.940;4.034;2023-02-28T02:49:24;6.75;;;6.12;;
52266;SDS011;38223;50.940;4.034;2023-02-28T02:51:51;7.45;;;5.65;;
52266;SDS011;38223;50.940;4.034;2023-02-28T02:54:27;7.62;;;6.00;;
52266;SDS011;38223;50.940;4.034;2023-02-28T02:57:02;7.45;;;6.05;;
52266;SDS011;38223;50.940;4.034;2023-02-28T02:59:35;7.00;;;6.15;;
52266;SDS011;38223;50.940;4.034;2023-02-28T03:02:11;6.87;;;5.17;;
52266;SDS011;38223;50.940;4.034;2023-02-28T03:04:48;7.92;;;5.83;;
52266;SDS011;38223;50.940;4.034;2023-02-28T03:07:24;11.43;;;6.30;;
52266;SDS011;38223;50.940;4.034;2023-02-28T03:09:57;11.97;;;6.22;;
52266;SDS011;38223;50.940;4.034;2023-02-28T03:12:39;9.15;;;6.12;;
52266;SDS011;38223;50.940;4.034;2023-02-28T03:15:11;6.42;;;5.83;;
52266;SDS011;38223;50.940;4.034;2023-02-28T03:18:24;8.98;;;6.45;;
52266;SDS011;38223;50.940;4.034;2023-02-28T03:23:01;6.85;;;6.22;;
52266;SDS011;38223;50.940;4.034;2023-02-28T03:31:10;7.60;;;6.70;;
52266;SDS011;38223;50.940;4.034;2023-02-28T03:33:45;8.85;;;6.65;;
52266;SDS011;38223;50.940;4.034;2023-02-28T03:36:25;8.55;;;6.55;;
52266;SDS011;38223;50.940;4.034;2023-02-28T03:38:55;8.45;;;6.70;;
52266;SDS011;38223;50.940;4.034;2023-02-28T03:41:32;9.13;;;6.72;;
52266;SDS011;38223;50.940;4.034;2023-02-28T03:44:10;8.80;;;7.47;;
52266;SDS011;38223;50.940;4.034;2023-02-28T03:46:38;9.08;;;6.55;;
52266;SDS011;38223;50.940;4.034;2023-02-28T03:49:12;8.98;;;6.97;;
52266;SDS011;38223;50.940;4.034;2023-02-28T03:51:41;7.60;;;6.80;;
52266;SDS011;38223;50.940;4.034;2023-02-28T03:54:20;12.10;;;6.78;;
52266;SDS011;38223;50.940;4.034;2023-02-28T03:56:53;9.25;;;7.03;;
52266;SDS011;38223;50.940;4.034;2023-02-28T03:59:33;9.15;;;6.83;;
52266;SDS011;38223;50.940;4.034;2023-02-28T04:02:02;8.03;;;7.30;;
52266;SDS011;38223;50.940;4.034;2023-02-28T04:04:30;11.00;;;7.00;;
52266;SDS011;38223;50.940;4.034;2023-02-28T04:07:02;8.83;;;6.72;;
52266;SDS011;38223;50.940;4.034;2023-02-28T04:09:33;8.40;;;6.87;;
52266;SDS011;38223;50.940;4.034;2023-02-28T04:12:09;8.55;;;7.28;;
52266;SDS011;38223;50.940;4.034;2023-02-28T04:14:38;9.18;;;6.85;;
52266;SDS011;38223;50.940;4.034;2023-02-28T04:17:09;10.15;;;6.80;;
52266;SDS011;38223;50.940;4.034;2023-02-28T04:19:40;13.10;;;7.33;;
52266;SDS011;38223;50.940;4.034;2023-02-28T04:22:08;8.53;;;7.25;;
52266;SDS011;38223;50.940;4.034;2023-02-28T04:24:39;11.63;;;7.22;;
52266;SDS011;38223;50.940;4.034;2023-02-28T04:27:08;8.75;;;7.67;;
52266;SDS011;38223;50.940;4.034;2023-02-28T04:29:40;12.43;;;7.08;;
52266;SDS011;38223;50.940;4.034;2023-02-28T04:32:13;12.05;;;7.58;;
52266;SDS011;38223;50.940;4.034;2023-02-28T04:34:43;8.90;;;7.70;;
52266;SDS011;38223;50.940;4.034;2023-02-28T04:37:11;7.90;;;7.10;;
52266;SDS011;38223;50.940;4.034;2023-02-28T04:39:41;8.35;;;7.17;;
52266;SDS011;38223;50.940;4.034;2023-02-28T04:42:10;9.10;;;7.47;;
52266;SDS011;38223;50.940;4.034;2023-02-28T04:44:40;8.28;;;7.53;;
52266;SDS011;38223;50.940;4.034;2023-02-28T04:47:08;9.70;;;7.12;;
52266;SDS011;38223;50.940;4.034;2023-02-28T04:49:38;10.48;;;6.62;;
52266;SDS011;38223;50.940;4.034;2023-02-28T04:52:07;10.38;;;7.05;;
52266;SDS011;38223;50.940;4.034;2023-02-28T04:54:39;9.88;;;7.40;;
52266;SDS011;38223;50.940;4.034;2023-02-28T04:57:10;12.88;;;7.30;;
52266;SDS011;38223;50.940;4.034;2023-02-28T04:59:38;11.28;;;8.18;;
52266;SDS011;38223;50.940;4.034;2023-02-28T05:02:05;9.55;;;7.65;;
52266;SDS011;38223;50.940;4.034;2023-02-28T05:04:43;9.48;;;7.30;;
52266;SDS011;38223;50.940;4.034;2023-02-28T05:07:12;11.35;;;7.50;;
52266;SDS011;38223;50.940;4.034;2023-02-28T05:09:40;9.48;;;7.50;;
52266;SDS011;38223;50.940;4.034;2023-02-28T05:12:10;9.78;;;7.30;;
52266;SDS011;38223;50.940;4.034;2023-02-28T05:14:42;10.50;;;7.80;;
52266;SDS011;38223;50.940;4.034;2023-02-28T05:17:09;8.15;;;7.35;;
52266;SDS011;38223;50.940;4.034;2023-02-28T05:19:37;8.28;;;7.45;;
52266;SDS011;38223;50.940;4.034;2023-02-28T05:22:09;11.28;;;7.12;;
52266;SDS011;38223;50.940;4.034;2023-02-28T05:24:37;10.55;;;7.85;;
52266;SDS011;38223;50.940;4.034;2023-02-28T05:27:09;8.83;;;7.80;;
52266;SDS011;38223;50.940;4.034;2023-02-28T05:29:38;10.80;;;7.40;;
52266;SDS011;38223;50.940;4.034;2023-02-28T05:32:11;7.78;;;7.08;;
52266;SDS011;38223;50.940;4.034;2023-02-28T05:34:41;10.25;;;7.75;;
52266;SDS011;38223;50.940;4.034;2023-02-28T05:37:11;9.60;;;8.38;;
52266;SDS011;38223;50.940;4.034;2023-02-28T05:39:39;10.72;;;7.85;;
52266;SDS011;38223;50.940;4.034;2023-02-28T05:42:11;10.85;;;8.40;;
52266;SDS011;38223;50.940;4.034;2023-02-28T05:44:38;9.18;;;8.15;;
52266;SDS011;38223;50.940;4.034;2023-02-28T05:47:07;11.78;;;8.00;;
52266;SDS011;38223;50.940;4.034;2023-02-28T05:49:35;11.68;;;7.75;;
52266;SDS011;38223;50.940;4.034;2023-02-28T05:52:06;10.90;;;8.75;;
52266;SDS011;38223;50.940;4.034;2023-02-28T05:54:38;19.17;;;8.08;;
52266;SDS011;38223;50.940;4.034;2023-02-28T05:57:10;14.35;;;8.75;;
52266;SDS011;38223;50.940;4.034;2023-02-28T05:59:44;11.97;;;8.53;;
52266;SDS011;38223;50.940;4.034;2023-02-28T06:02:17;11.20;;;8.30;;
52266;SDS011;38223;50.940;4.034;2023-02-28T06:04:45;11.50;;;7.75;;
52266;SDS011;38223;50.940;4.034;2023-02-28T06:07:15;12.30;;;8.25;;
52266;SDS011;38223;50.940;4.034;2023-02-28T06:09:43;9.63;;;7.70;;
52266;SDS011;38223;50.940;4.034;2023-02-28T06:12:11;8.30;;;7.50;;
52266;SDS011;38223;50.940;4.034;2023-02-28T06:14:43;11.10;;;7.20;;
52266;SDS011;38223;50.940;4.034;2023-02-28T06:17:16;10.78;;;8.08;;
52266;SDS011;38223;50.940;4.034;2023-02-28T06:19:49;10.08;;;7.97;;
52266;SDS011;38223;50.940;4.034;2023-02-28T06:22:17;10.15;;;8.30;;
52266;SDS011;38223;50.940;4.034;2023-02-28T06:24:51;11.93;;;7.85;;
52266;SDS011;38223;50.940;4.034;2023-02-28T06:27:20;13.90;;;8.30;;
52266;SDS011;38223;50.940;4.034;2023-02-28T06:29:48;16.40;;;9.20;;
52266;SDS011;38223;50.940;4.034;2023-02-28T06:32:17;10.10;;;8.25;;
52266;SDS011;38223;50.940;4.034;2023-02-28T06:34:50;8.50;;;7.70;;
52266;SDS011;38223;50.940;4.034;2023-02-28T06:37:20;14.70;;;7.65;;
52266;SDS011;38223;50.940;4.034;2023-02-28T06:39:50;17.20;;;8.63;;
52266;SDS011;38223;50.940;4.034;2023-02-28T06:42:23;13.45;;;8.50;;
52266;SDS011;38223;50.940;4.034;2023-02-28T06:44:55;13.65;;;7.67;;
52266;SDS011;38223;50.940;4.034;2023-02-28T06:47:27;13.15;;;8.13;;
52266;SDS011;38223;50.940;4.034;2023-02-28T06:49:59;10.38;;;7.53;;
52266;SDS011;38223;50.940;4.034;2023-02-28T06:52:30;20.52;;;8.93;;
52266;SDS011;38223;50.940;4.034;2023-02-28T06:55:09;16.12;;;8.08;;
52266;SDS011;38223;50.940;4.034;2023-02-28T06:57:38;11.18;;;7.83;;
52266;SDS011;38223;50.940;4.034;2023-02-28T07:00:08;15.30;;;8.05;;
52266;SDS011;38223;50.940;4.034;2023-02-28T07:02:36;12.47;;;7.43;;
52266;SDS011;38223;50.940;4.034;2023-02-28T07:05:05;13.28;;;7.12;;
52266;SDS011;38223;50.940;4.034;2023-02-28T07:07:38;10.00;;;7.30;;
52266;SDS011;38223;50.940;4.034;2023-02-28T07:10:11;15.03;;;7.60;;
52266;SDS011;38223;50.940;4.034;2023-02-28T07:12:45;14.63;;;7.40;;
52266;SDS011;38223;50.940;4.034;2023-02-28T07:15:17;10.35;;;6.90;;
52266;SDS011;38223;50.940;4.034;2023-02-28T07:17:50;13.88;;;7.83;;
52266;SDS011;38223;50.940;4.034;2023-02-28T07:20:20;11.25;;;7.28;;
52266;SDS011;38223;50.940;4.034;2023-02-28T07:22:51;12.93;;;7.85;;
52266;SDS011;38223;50.940;4.034;2023-02-28T07:25:23;10.65;;;7.12;;
52266;SDS011;38223;50.940;4.034;2023-02-28T07:27:53;11.20;;;6.87;;
52266;SDS011;38223;50.940;4.034;2023-02-28T07:30:22;10.65;;;7.72;;
52266;SDS011;38223;50.940;4.034;2023-02-28T07:32:49;13.45;;;7.42;;
52266;SDS011;38223;50.940;4.034;2023-02-28T07:35:17;12.13;;;7.83;;
52266;SDS011;38223;50.940;4.034;2023-02-28T07:37:45;8.60;;;7.17;;
52266;SDS011;38223;50.940;4.034;2023-02-28T07:40:17;8.18;;;6.67;;
52266;SDS011;38223;50.940;4.034;2023-02-28T07:42:47;8.98;;;6.75;;
52266;SDS011;38223;50.940;4.034;2023-02-28T07:45:18;13.05;;;6.92;;
52266;SDS011;38223;50.940;4.034;2023-02-28T07:47:47;10.88;;;7.12;;
52266;SDS011;38223;50.940;4.034;2023-02-28T07:50:16;15.70;;;7.42;;
52266;SDS011;38223;50.940;4.034;2023-02-28T07:52:44;13.75;;;8.00;;
52266;SDS011;38223;50.940;4.034;2023-02-28T07:55:13;18.42;;;7.60;;
52266;SDS011;38223;50.940;4.034;2023-02-28T07:57:42;13.05;;;7.75;;
52266;SDS011;38223;50.940;4.034;2023-02-28T08:00:10;10.25;;;7.42;;
52266;SDS011;38223;50.940;4.034;2023-02-28T08:02:43;8.93;;;7.83;;
52266;SDS011;38223;50.940;4.034;2023-02-28T08:05:11;15.25;;;7.50;;
52266;SDS011;38223;50.940;4.034;2023-02-28T08:07:40;9.70;;;7.62;;
52266;SDS011;38223;50.940;4.034;2023-02-28T08:10:11;14.35;;;8.03;;
52266;SDS011;38223;50.940;4.034;2023-02-28T08:12:43;10.40;;;6.87;;
52266;SDS011;38223;50.940;4.034;2023-02-28T08:15:20;8.75;;;6.47;;
52266;SDS011;38223;50.940;4.034;2023-02-28T08:17:50;9.18;;;6.87;;
52266;SDS011;38223;50.940;4.034;2023-02-28T08:20:25;9.65;;;6.47;;
52266;SDS011;38223;50.940;4.034;2023-02-28T08:22:56;10.00;;;6.97;;
52266;SDS011;38223;50.940;4.034;2023-02-28T08:25:24;8.68;;;7.20;;
52266;SDS011;38223;50.940;4.034;2023-02-28T08:28:11;11.45;;;7.10;;
52266;SDS011;38223;50.940;4.034;2023-02-28T08:30:38;7.95;;;6.58;;
52266;SDS011;38223;50.940;4.034;2023-02-28T08:33:06;10.63;;;6.40;;
52266;SDS011;38223;50.940;4.034;2023-02-28T08:35:36;6.85;;;5.78;;
52266;SDS011;38223;50.940;4.034;2023-02-28T08:38:10;9.00;;;5.60;;
52266;SDS011;38223;50.940;4.034;2023-02-28T08:40:38;9.83;;;5.58;;
52266;SDS011;38223;50.940;4.034;2023-02-28T08:43:08;6.15;;;5.17;;
52266;SDS011;38223;50.940;4.034;2023-02-28T08:45:39;10.88;;;5.37;;
52266;SDS011;38223;50.940;4.034;2023-02-28T08:48:12;7.92;;;4.65;;
52266;SDS011;38223;50.940;4.034;2023-02-28T08:51:07;6.22;;;4.85;;
52266;SDS011;38223;50.940;4.034;2023-02-28T08:53:37;7.90;;;4.65;;
52266;SDS011;38223;50.940;4.034;2023-02-28T08:56:10;8.75;;;4.45;;
52266;SDS011;38223;50.940;4.034;2023-02-28T08:58:42;5.83;;;4.70;;
52266;SDS011;38223;50.940;4.034;2023-02-28T09:01:16;5.87;;;4.47;;
52266;SDS011;38223;50.940;4.034;2023-02-28T09:03:50;6.10;;;4.58;;
52266;SDS011;38223;50.940;4.034;2023-02-28T09:06:26;8.25;;;4.67;;
52266;SDS011;38223;50.940;4.034;2023-02-28T09:08:59;6.53;;;3.90;;
52266;SDS011;38223;50.940;4.034;2023-02-28T09:11:30;7.60;;;4.17;;
52266;SDS011;38223;50.940;4.034;2023-02-28T09:14:02;9.78;;;3.33;;
52266;SDS011;38223;50.940;4.034;2023-02-28T09:16:31;8.05;;;3.62;;
52266;SDS011;38223;50.940;4.034;2023-02-28T09:19:03;6.12;;;3.47;;
52266;SDS011;38223;50.940;4.034;2023-02-28T09:21:42;4.70;;;3.40;;
52266;SDS011;38223;50.940;4.034;2023-02-28T09:24:13;3.77;;;3.00;;
52266;SDS011;38223;50.940;4.034;2023-02-28T09:26:43;8.13;;;2.95;;
52266;SDS011;38223;50.940;4.034;2023-02-28T09:29:14;5.92;;;3.00;;
52266;SDS011;38223;50.940;4.034;2023-02-28T09:31:45;5.65;;;3.00;;
52266;SDS011;38223;50.940;4.034;2023-02-28T09:34:15;3.80;;;2.83;;
52266;SDS011;38223;50.940;4.034;2023-02-28T09:36:47;3.58;;;2.35;;
52266;SDS011;38223;50.940;4.034;2023-02-28T09:39:21;4.97;;;2.50;;
52266;SDS011;38223;50.940;4.034;2023-02-28T09:41:52;2.80;;;2.55;;
52266;SDS011;38223;50.940;4.034;2023-02-28T09:44:33;5.75;;;2.75;;
52266;SDS011;38223;50.940;4.034;2023-02-28T09:49:54;4.33;;;2.50;;
52266;SDS011;38223;50.940;4.034;2023-02-28T09:52:26;3.98;;;2.35;;
52266;SDS011;38223;50.940;4.034;2023-02-28T09:54:54;5.85;;;2.90;;
52266;SDS011;38223;50.940;4.034;2023-02-28T09:57:32;2.95;;;2.20;;
52266;SDS011;38223;50.940;4.034;2023-02-28T10:00:33;7.22;;;2.40;;
52266;SDS011;38223;50.940;4.034;2023-02-28T10:03:16;3.72;;;2.67;;
52266;SDS011;38223;50.940;4.034;2023-02-28T10:08:36;3.58;;;3.02;;
52266;SDS011;38223;50.940;4.034;2023-02-28T10:11:17;5.05;;;2.40;;
52266;SDS011;38223;50.940;4.034;2023-02-28T10:16:40;4.00;;;1.92;;
52266;SDS011;38223;50.940;4.034;2023-02-28T10:19:33;2.45;;;1.75;;
52266;SDS011;38223;50.940;4.034;2023-02-28T10:22:22;3.08;;;1.82;;
52266;SDS011;38223;50.940;4.034;2023-02-28T10:24:52;2.05;;;1.47;;
52266;SDS011;38223;50.940;4.034;2023-02-28T10:27:31;9.20;;;2.15;;
52266;SDS011;38223;50.940;4.034;2023-02-28T10:30:05;1.87;;;1.60;;
52266;SDS011;38223;50.940;4.034;2023-02-28T10:32:38;4.55;;;2.17;;
52266;SDS011;38223;50.940;4.034;2023-02-28T10:35:18;2.02;;;1.50;;
52266;SDS011;38223;50.940;4.034;2023-02-28T10:37:49;1.87;;;1.40;;
52266;SDS011;38223;50.940;4.034;2023-02-28T10:43:00;3.37;;;1.52;;
52266;SDS011;38223;50.940;4.034;2023-02-28T10:45:34;2.72;;;1.60;;
52266;SDS011;38223;50.940;4.034;2023-02-28T10:48:23;6.45;;;1.57;;
52266;SDS011;38223;50.940;4.034;2023-02-28T10:53:33;2.10;;;1.60;;
52266;SDS011;38223;50.940;4.034;2023-02-28T10:58:52;1.72;;;1.60;;
52266;SDS011;38223;50.940;4.034;2023-02-28T11:01:37;3.40;;;1.80;;
52266;SDS011;38223;50.940;4.034;2023-02-28T11:04:39;3.42;;;1.80;;
52266;SDS011;38223;50.940;4.034;2023-02-28T11:06:47;1.92;;;1.65;;
52266;SDS011;38223;50.940;4.034;2023-02-28T11:09:27;5.10;;;1.85;;
52266;SDS011;38223;50.940;4.034;2023-02-28T11:12:05;4.28;;;1.82;;
52266;SDS011;38223;50.940;4.034;2023-02-28T11:14:40;2.83;;;1.50;;
52266;SDS011;38223;50.940;4.034;2023-02-28T11:17:21;2.00;;;1.40;;
52266;SDS011;38223;50.940;4.034;2023-02-28T11:20:02;2.25;;;1.40;;
52266;SDS011;38223;50.940;4.034;2023-02-28T11:22:31;2.98;;;1.60;;
52266;SDS011;38223;50.940;4.034;2023-02-28T11:25:09;2.27;;;1.50;;
52266;SDS011;38223;50.940;4.034;2023-02-28T11:27:51;5.60;;;1.67;;
52266;SDS011;38223;50.940;4.034;2023-02-28T11:30:25;7.55;;;1.62;;
52266;SDS011;38223;50.940;4.034;2023-02-28T11:33:07;2.20;;;1.50;;
52266;SDS011;38223;50.940;4.034;2023-02-28T11:35:38;4.17;;;1.55;;
52266;SDS011;38223;50.940;4.034;2023-02-28T11:38:09;2.17;;;1.60;;
52266;SDS011;38223;50.940;4.034;2023-02-28T11:46:30;1.55;;;1.40;;
52266;SDS011;38223;50.940;4.034;2023-02-28T11:49:24;3.65;;;1.57;;
52266;SDS011;38223;50.940;4.034;2023-02-28T11:54:55;3.00;;;1.32;;
52266;SDS011;38223;50.940;4.034;2023-02-28T12:03:37;1.50;;;1.40;;
52266;SDS011;38223;50.940;4.034;2023-02-28T12:06:22;1.92;;;1.50;;
52266;SDS011;38223;50.940;4.034;2023-02-28T12:17:29;2.83;;;1.52;;
52266;SDS011;38223;50.940;4.034;2023-02-28T12:20:21;4.03;;;2.02;;
52266;SDS011;38223;50.940;4.034;2023-02-28T12:22:59;2.77;;;2.00;;
52266;SDS011;38223;50.940;4.034;2023-02-28T12:25:42;4.30;;;1.50;;
52266;SDS011;38223;50.940;4.034;2023-02-28T12:28:13;5.08;;;1.95;;
52266;SDS011;38223;50.940;4.034;2023-02-28T12:30:56;4.75;;;1.75;;
52266;SDS011;38223;50.940;4.034;2023-02-28T12:33:16;3.20;;;1.50;;
52266;SDS011;38223;50.940;4.034;2023-02-28T12:35:57;3.10;;;1.30;;
52266;SDS011;38223;50.940;4.034;2023-02-28T12:38:44;4.05;;;1.62;;
52266;SDS011;38223;50.940;4.034;2023-02-28T12:41:19;3.10;;;1.32;;
52266;SDS011;38223;50.940;4.034;2023-02-28T12:44:00;4.60;;;1.35;;
52266;SDS011;38223;50.940;4.034;2023-02-28T12:46:32;2.02;;;1.60;;
52266;SDS011;38223;50.940;4.034;2023-02-28T12:52:01;7.80;;;2.12;;
52266;SDS011;38223;50.940;4.034;2023-02-28T12:54:35;3.40;;;1.90;;
52266;SDS011;38223;50.940;4.034;2023-02-28T12:57:10;1.87;;;1.60;;
52266;SDS011;38223;50.940;4.034;2023-02-28T12:59:50;2.15;;;1.52;;
52266;SDS011;38223;50.940;4.034;2023-02-28T13:02:50;3.40;;;1.77;;
52266;SDS011;38223;50.940;4.034;2023-02-28T13:05:26;3.50;;;2.00;;
52266;SDS011;38223;50.940;4.034;2023-02-28T13:10:48;2.75;;;2.00;;
52266;SDS011;38223;50.940;4.034;2023-02-28T13:13:19;2.77;;;1.75;;
52266;SDS011;38223;50.940;4.034;2023-02-28T13:21:27;1.75;;;1.60;;
52266;SDS011;38223;50.940;4.034;2023-02-28T13:24:01;2.05;;;1.40;;
52266;SDS011;38223;50.940;4.034;2023-02-28T13:47:42;4.70;;;1.57;;
52266;SDS011;38223;50.940;4.034;2023-02-28T13:50:20;2.55;;;1.95;;
52266;SDS011;38223;50.940;4.034;2023-02-28T13:55:58;3.40;;;2.52;;
52266;SDS011;38223;50.940;4.034;2023-02-28T14:07:02;3.83;;;2.22;;
52266;SDS011;38223;50.940;4.034;2023-02-28T14:09:36;2.40;;;1.90;;
52266;SDS011;38223;50.940;4.034;2023-02-28T14:12:58;2.20;;;2.00;;
52266;SDS011;38223;50.940;4.034;2023-02-28T14:14:58;14.60;;;2.47;;
52266;SDS011;38223;50.940;4.034;2023-02-28T14:17:27;4.53;;;2.33;;
52266;SDS011;38223;50.940;4.034;2023-02-28T14:19:56;2.20;;;2.08;;
52266;SDS011;38223;50.940;4.034;2023-02-28T14:26:19;2.60;;;2.10;;
52266;SDS011;38223;50.940;4.034;2023-02-28T14:28:21;7.58;;;2.98;;
52266;SDS011;38223;50.940;4.034;2023-02-28T14:31:01;2.55;;;2.35;;
52266;SDS011;38223;50.940;4.034;2023-02-28T14:36:35;2.67;;;2.17;;
52266;SDS011;38223;50.940;4.034;2023-02-28T14:41:43;3.00;;;2.37;;
52266;SDS011;38223;50.940;4.034;2023-02-28T14:46:58;3.27;;;2.00;;
52266;SDS011;38223;50.940;4.034;2023-02-28T14:49:31;6.10;;;1.80;;
52266;SDS011;38223;50.940;4.034;2023-02-28T14:52:05;2.30;;;2.10;;
52266;SDS011;38223;50.940;4.034;2023-02-28T14:54:44;3.30;;;2.27;;
52266;SDS011;38223;50.940;4.034;2023-02-28T14:57:22;2.05;;;1.90;;
52266;SDS011;38223;50.940;4.034;2023-02-28T14:59:56;3.70;;;2.20;;
52266;SDS011;38223;50.940;4.034;2023-02-28T15:02:30;3.10;;;2.45;;
52266;SDS011;38223;50.940;4.034;2023-02-28T15:05:10;2.50;;;2.10;;
52266;SDS011;38223;50.940;4.034;2023-02-28T15:07:45;3.33;;;2.60;;
52266;SDS011;38223;50.940;4.034;2023-02-28T15:10:25;3.08;;;2.00;;
52266;SDS011;38223;50.940;4.034;2023-02-28T15:12:57;3.22;;;2.05;;
52266;SDS011;38223;50.940;4.034;2023-02-28T15:15:40;3.58;;;2.40;;
52266;SDS011;38223;50.940;4.034;2023-02-28T15:18:57;5.20;;;2.30;;
52266;SDS011;38223;50.940;4.034;2023-02-28T15:20:44;6.92;;;2.42;;
52266;SDS011;38223;50.940;4.034;2023-02-28T15:23:17;8.65;;;2.22;;
52266;SDS011;38223;50.940;4.034;2023-02-28T15:25:48;3.12;;;2.20;;
52266;SDS011;38223;50.940;4.034;2023-02-28T15:28:19;3.60;;;2.37;;
52266;SDS011;38223;50.940;4.034;2023-02-28T15:30:53;5.58;;;2.10;;
52266;SDS011;38223;50.940;4.034;2023-02-28T15:33:21;2.60;;;2.40;;
52266;SDS011;38223;50.940;4.034;2023-02-28T15:35:51;2.90;;;2.70;;
52266;SDS011;38223;50.940;4.034;2023-02-28T15:38:33;4.50;;;2.30;;
52266;SDS011;38223;50.940;4.034;2023-02-28T15:41:05;3.20;;;2.90;;
52266;SDS011;38223;50.940;4.034;2023-02-28T15:43:35;3.08;;;2.52;;
52266;SDS011;38223;50.940;4.034;2023-02-28T15:46:10;3.45;;;2.62;;
52266;SDS011;38223;50.940;4.034;2023-02-28T15:51:38;3.90;;;2.60;;
52266;SDS011;38223;50.940;4.034;2023-02-28T15:54:07;3.90;;;3.05;;
52266;SDS011;38223;50.940;4.034;2023-02-28T15:56:45;5.47;;;2.50;;
52266;SDS011;38223;50.940;4.034;2023-02-28T15:59:18;5.78;;;2.77;;
52266;SDS011;38223;50.940;4.034;2023-02-28T16:01:47;4.17;;;3.20;;
52266;SDS011;38223;50.940;4.034;2023-02-28T16:04:19;3.50;;;2.58;;
52266;SDS011;38223;50.940;4.034;2023-02-28T16:07:03;4.33;;;2.30;;
52266;SDS011;38223;50.940;4.034;2023-02-28T16:09:37;3.02;;;2.50;;
52266;SDS011;38223;50.940;4.034;2023-02-28T16:12:13;5.08;;;2.37;;
52266;SDS011;38223;50.940;4.034;2023-02-28T16:14:51;3.65;;;2.45;;
52266;SDS011;38223;50.940;4.034;2023-02-28T16:17:19;2.35;;;2.12;;
52266;SDS011;38223;50.940;4.034;2023-02-28T16:19:51;3.08;;;2.55;;
52266;SDS011;38223;50.940;4.034;2023-02-28T16:22:22;4.92;;;2.85;;
52266;SDS011;38223;50.940;4.034;2023-02-28T16:24:54;4.05;;;2.20;;
52266;SDS011;38223;50.940;4.034;2023-02-28T16:27:29;2.35;;;2.15;;
52266;SDS011;38223;50.940;4.034;2023-02-28T16:30:01;2.85;;;2.65;;
52266;SDS011;38223;50.940;4.034;2023-02-28T16:32:35;3.20;;;2.40;;
52266;SDS011;38223;50.940;4.034;2023-02-28T16:35:09;5.72;;;2.77;;
52266;SDS011;38223;50.940;4.034;2023-02-28T16:37:40;4.37;;;2.65;;
52266;SDS011;38223;50.940;4.034;2023-02-28T16:40:18;3.40;;;2.40;;
52266;SDS011;38223;50.940;4.034;2023-02-28T16:42:52;2.72;;;2.52;;
52266;SDS011;38223;50.940;4.034;2023-02-28T16:45:25;3.27;;;2.98;;
52266;SDS011;38223;50.940;4.034;2023-02-28T16:47:58;3.00;;;2.70;;
52266;SDS011;38223;50.940;4.034;2023-02-28T16:50:28;4.20;;;2.75;;
52266;SDS011;38223;50.940;4.034;2023-02-28T16:52:59;4.40;;;2.90;;
52266;SDS011;38223;50.940;4.034;2023-02-28T16:55:31;4.42;;;3.27;;
52266;SDS011;38223;50.940;4.034;2023-02-28T16:58:02;3.55;;;2.80;;
52266;SDS011;38223;50.940;4.034;2023-02-28T17:00:33;3.47;;;2.83;;
52266;SDS011;38223;50.940;4.034;2023-02-28T17:03:01;3.55;;;2.85;;
52266;SDS011;38223;50.940;4.034;2023-02-28T17:05:35;5.97;;;3.08;;
52266;SDS011;38223;50.940;4.034;2023-02-28T17:08:08;3.20;;;2.58;;
52266;SDS011;38223;50.940;4.034;2023-02-28T17:10:40;3.15;;;2.60;;
52266;SDS011;38223;50.940;4.034;2023-02-28T17:13:13;5.05;;;3.22;;
52266;SDS011;38223;50.940;4.034;2023-02-28T17:15:44;3.40;;;2.70;;
52266;SDS011;38223;50.940;4.034;2023-02-28T17:18:15;6.00;;;3.08;;
52266;SDS011;38223;50.940;4.034;2023-02-28T17:20:50;2.85;;;2.40;;
52266;SDS011;38223;50.940;4.034;2023-02-28T17:23:21;6.03;;;3.33;;